createdAt,value
2022-09-10T00:00:19.508Z,62.05
2022-09-10T00:02:21.228Z,61.84
2022-09-10T00:04:22.840Z,62.09
2022-09-10T00:06:27.617Z,61.99
2022-09-10T00:08:30.447Z,62.39
2022-09-10T00:10:32.108Z,62.15
2022-09-10T00:12:34.898Z,61.92
2022-09-10T00:14:37.336Z,62.17
2022-09-10T00:16:39.152Z,62.29
2022-09-10T00:18:41.791Z,62.27
2022-09-10T00:20:54.195Z,62.49
2022-09-10T00:22:55.848Z,62.21
2022-09-10T00:24:57.701Z,62.62
2022-09-10T00:27:00.083Z,62.50
2022-09-10T00:29:01.896Z,63.24
2022-09-10T00:31:04.119Z,63.09
2022-09-10T00:33:05.822Z,63.21
2022-09-10T00:35:08.160Z,63.54
2022-09-10T00:37:09.917Z,63.71
2022-09-10T00:39:14.716Z,63.81
2022-09-10T00:41:17.742Z,63.75
2022-09-10T00:43:22.009Z,63.64
2022-09-10T00:45:32.338Z,63.93
2022-09-10T00:47:38.375Z,63.78
2022-09-10T00:49:45.769Z,63.90
2022-09-10T00:51:48.710Z,63.91
2022-09-10T00:53:50.888Z,64.17
2022-09-10T00:55:55.965Z,64.24
2022-09-10T00:58:00.774Z,63.71
2022-09-10T01:00:08.133Z,63.42
2022-09-10T01:02:10.203Z,63.64
2022-09-10T01:04:11.865Z,63.69
2022-09-10T01:06:13.454Z,63.81
2022-09-10T01:08:16.852Z,63.78
2022-09-10T01:10:24.583Z,64.00
2022-09-10T01:13:07.139Z,64.01
2022-09-10T01:15:25.075Z,64.09
2022-09-10T01:17:29.870Z,64.09
2022-09-10T01:20:00.669Z,64.48
2022-09-10T01:22:19.354Z,64.51
2022-09-10T01:24:24.464Z,64.45
2022-09-10T01:26:44.408Z,64.33
2022-09-10T01:29:09.542Z,64.08
2022-09-10T01:31:46.263Z,64.47
2022-09-10T01:33:57.390Z,65.13
2022-09-10T01:36:06.934Z,65.30
2022-09-10T01:38:15.560Z,65.25
2022-09-10T01:40:18.082Z,65.16
2022-09-10T01:42:19.672Z,65.23
2022-09-10T01:44:49.634Z,64.98
2022-09-10T01:47:00.579Z,64.86
2022-09-10T01:49:26.042Z,64.54
2022-09-10T01:51:42.608Z,64.40
2022-09-10T01:54:11.463Z,64.01
2022-09-10T01:56:40.608Z,64.17
2022-09-10T01:58:43.554Z,63.76
2022-09-10T02:01:14.408Z,63.81
2022-09-10T02:03:18.979Z,63.57
2022-09-10T02:05:23.478Z,63.33
2022-09-10T02:07:26.931Z,63.52
2022-09-10T02:09:28.574Z,63.48
2022-09-10T02:11:30.538Z,63.74
2022-09-10T02:13:34.286Z,63.99
2022-09-10T02:15:37.960Z,63.72
2022-09-10T02:17:40.422Z,63.99
2022-09-10T02:19:44.544Z,64.00
2022-09-10T02:21:46.790Z,63.80
2022-09-10T02:23:56.976Z,63.89
2022-09-10T02:25:58.758Z,63.81
2022-09-10T02:28:00.777Z,63.89
2022-09-10T02:30:02.524Z,63.65
2022-09-10T02:32:04.493Z,63.71
2022-09-10T02:34:06.568Z,63.83
2022-09-10T02:36:08.699Z,64.16
2022-09-10T02:38:10.760Z,66.20
2022-09-10T02:40:12.705Z,67.99
2022-09-10T02:42:17.031Z,69.51
2022-09-10T02:44:18.715Z,70.31
2022-09-10T02:46:20.632Z,69.98
2022-09-10T02:48:22.308Z,69.42
2022-09-10T02:50:24.486Z,69.22
2022-09-10T02:52:26.098Z,69.21
2022-09-10T02:54:27.673Z,69.62
2022-09-10T02:56:29.323Z,70.05
2022-09-10T02:58:31.459Z,70.37
2022-09-10T03:00:33.813Z,70.10
2022-09-10T03:02:36.932Z,69.77
2022-09-10T03:04:39.122Z,69.37
2022-09-10T03:06:41.182Z,68.74
2022-09-10T03:08:42.883Z,68.03
2022-09-10T03:10:45.381Z,68.20
2022-09-10T03:12:48.044Z,68.43
2022-09-10T03:14:50.542Z,68.09
2022-09-10T03:16:52.749Z,67.45
2022-09-10T03:18:54.509Z,67.49
2022-09-10T03:20:56.121Z,67.01
2022-09-10T03:22:57.922Z,66.89
2022-09-10T03:24:59.864Z,66.62
2022-09-10T03:27:01.496Z,66.82
2022-09-10T03:29:03.410Z,66.67
2022-09-10T03:31:05.628Z,66.32
2022-09-10T03:33:07.893Z,66.12
2022-09-10T03:35:10.541Z,66.42
2022-09-10T03:37:12.139Z,66.33
2022-09-10T03:39:16.597Z,66.15
2022-09-10T03:41:18.281Z,65.94
2022-09-10T03:43:22.462Z,66.01
2022-09-10T03:45:24.092Z,65.53
2022-09-10T03:47:25.733Z,65.68
2022-09-10T03:49:28.186Z,65.66
2022-09-10T03:51:31.172Z,65.61
2022-09-10T03:53:32.791Z,65.46
2022-09-10T03:55:34.433Z,65.25
2022-09-10T03:57:36.033Z,65.58
2022-09-10T03:59:41.212Z,65.83
2022-09-10T04:01:43.128Z,66.70
2022-09-10T04:03:44.952Z,66.64
2022-09-10T04:05:47.077Z,66.98
2022-09-10T04:07:48.639Z,66.99
2022-09-10T04:09:50.201Z,66.87
2022-09-10T04:11:52.123Z,66.69
2022-09-10T04:13:54.713Z,66.67
2022-09-10T04:15:56.300Z,66.82
2022-09-10T04:17:57.984Z,66.19
2022-09-10T04:19:59.580Z,66.18
2022-09-10T04:22:19.586Z,66.00
2022-09-10T04:24:21.186Z,65.59
2022-09-10T04:26:23.344Z,65.51
2022-09-10T04:28:25.034Z,65.71
2022-09-10T04:30:26.707Z,65.67
2022-09-10T04:32:28.397Z,65.90
2022-09-10T04:34:29.950Z,66.48
2022-09-10T04:36:31.551Z,66.60
2022-09-10T04:38:33.740Z,66.63
2022-09-10T04:40:35.590Z,67.15
2022-09-10T04:42:37.266Z,67.94
2022-09-10T04:44:39.054Z,69.00
2022-09-10T04:46:42.035Z,68.93
2022-09-10T04:48:43.644Z,68.82
2022-09-10T04:51:05.386Z,68.40
2022-09-10T04:53:07.993Z,68.16
2022-09-10T04:55:10.575Z,67.87
2022-09-10T04:57:12.522Z,67.55
2022-09-10T04:59:14.215Z,67.16
2022-09-10T05:01:15.977Z,66.90
2022-09-10T05:03:18.329Z,66.80
2022-09-10T05:05:19.896Z,66.81
2022-09-10T05:07:21.445Z,66.92
2022-09-10T05:09:23.338Z,66.84
2022-09-10T05:11:25.424Z,67.33
2022-09-10T05:13:26.970Z,67.48
2022-09-10T05:15:28.711Z,67.45
2022-09-10T05:17:30.331Z,67.61
2022-09-10T05:19:31.965Z,68.00
2022-09-10T05:21:33.866Z,68.15
2022-09-10T05:23:35.450Z,68.27
2022-09-10T05:25:37.743Z,68.60
2022-09-10T05:27:39.611Z,68.61
2022-09-10T05:29:41.260Z,69.36
2022-09-10T05:31:43.059Z,69.88
2022-09-10T05:33:44.790Z,70.90
2022-09-10T05:35:49.152Z,70.91
2022-09-10T05:37:50.842Z,70.56
2022-09-10T05:39:52.444Z,70.71
2022-09-10T05:41:55.651Z,70.27
2022-09-10T05:43:57.733Z,70.39
2022-09-10T05:45:59.363Z,69.81
2022-09-10T05:48:01.161Z,69.87
2022-09-10T05:50:02.765Z,69.52
2022-09-10T05:52:04.399Z,68.56
2022-09-10T05:54:06.098Z,68.37
2022-09-10T05:56:07.962Z,67.34
2022-09-10T05:58:09.672Z,66.79
2022-09-10T06:00:11.816Z,65.94
2022-09-10T06:02:21.797Z,65.46
2022-09-10T06:04:25.616Z,65.01
2022-09-10T06:06:28.424Z,64.63
2022-09-10T06:08:31.440Z,65.47
2022-09-10T06:10:33.474Z,65.63
2022-09-10T06:12:36.240Z,65.41
2022-09-10T06:14:38.021Z,65.83
2022-09-10T06:16:39.688Z,66.70
2022-09-10T06:18:42.652Z,66.69
2022-09-10T06:20:44.276Z,66.02
2022-09-10T06:22:45.901Z,65.49
2022-09-10T06:24:50.280Z,65.41
2022-09-10T06:26:52.109Z,65.18
2022-09-10T06:28:55.328Z,64.33
2022-09-10T06:30:57.037Z,64.48
2022-09-10T06:32:58.679Z,64.26
2022-09-10T06:35:00.350Z,64.19
2022-09-10T06:37:03.496Z,64.05
2022-09-10T06:39:07.147Z,64.30
2022-09-10T06:41:13.565Z,63.85
2022-09-10T06:43:15.226Z,63.66
2022-09-10T06:45:16.937Z,63.07
2022-09-10T06:48:06.553Z,62.88
2022-09-10T06:49:40.848Z,62.37
2022-09-10T06:51:42.557Z,62.17
2022-09-10T06:53:47.988Z,61.90
2022-09-10T06:55:51.140Z,61.47
2022-09-10T06:57:52.932Z,61.01
2022-09-10T06:59:54.532Z,60.62
2022-09-10T07:01:56.367Z,60.10
2022-09-10T07:03:59.644Z,59.60
2022-09-10T07:06:05.963Z,59.30
2022-09-10T07:08:07.597Z,58.65
2022-09-10T07:10:09.530Z,59.04
2022-09-10T07:12:11.406Z,58.97
2022-09-10T07:14:14.025Z,59.48
2022-09-10T07:16:21.532Z,59.64
2022-09-10T07:18:24.449Z,59.46
2022-09-10T07:20:27.194Z,59.23
2022-09-10T07:22:28.757Z,58.49
2022-09-10T07:24:30.401Z,59.67
2022-09-10T07:26:32.537Z,59.34
2022-09-10T07:28:34.214Z,59.11
2022-09-10T07:30:36.113Z,58.65
2022-09-10T07:32:37.771Z,58.15
2022-09-10T07:34:39.484Z,57.57
2022-09-10T07:36:41.094Z,57.48
2022-09-10T07:38:43.260Z,56.81
2022-09-10T07:40:44.913Z,57.31
2022-09-10T07:42:46.497Z,57.08
2022-09-10T07:44:48.082Z,57.12
2022-09-10T07:46:49.762Z,57.23
2022-09-10T07:48:57.062Z,56.37
2022-09-10T07:51:06.138Z,55.81
2022-09-10T07:53:07.818Z,55.46
2022-09-10T07:55:09.866Z,55.55
2022-09-10T07:57:11.648Z,55.72
2022-09-10T07:59:13.417Z,55.52
2022-09-10T08:01:15.360Z,55.27
2022-09-10T08:03:18.333Z,55.01
2022-09-10T08:05:19.960Z,54.59
2022-09-10T08:07:21.601Z,54.49
2022-09-10T08:09:23.313Z,54.08
2022-09-10T08:11:25.353Z,53.44
2022-09-10T08:13:29.922Z,53.76
2022-09-10T08:15:31.527Z,53.68
2022-09-10T08:17:34.303Z,54.44
2022-09-10T08:19:36.904Z,54.13
2022-09-10T08:21:38.645Z,54.13
2022-09-10T08:23:40.360Z,53.71
2022-09-10T08:25:51.353Z,53.44
2022-09-10T08:28:11.749Z,52.82
2022-09-10T08:30:14.896Z,52.98
2022-09-10T08:32:16.706Z,53.50
2022-09-10T08:34:18.323Z,53.07
2022-09-10T08:36:22.022Z,53.40
2022-09-10T08:38:30.463Z,53.16
2022-09-10T08:40:32.654Z,53.46
2022-09-10T08:42:40.145Z,53.50
2022-09-10T08:44:49.915Z,53.82
2022-09-10T08:47:20.454Z,53.72
2022-09-10T08:49:36.911Z,53.21
2022-09-10T08:51:45.761Z,53.76
2022-09-10T08:53:56.044Z,53.79
2022-09-10T08:56:03.546Z,54.52
2022-09-10T08:58:13.606Z,54.35
2022-09-10T09:00:21.306Z,54.10
2022-09-10T09:02:49.021Z,53.82
2022-09-10T09:04:58.537Z,54.18
2022-09-10T09:07:02.986Z,54.54
2022-09-10T09:09:04.949Z,54.45
2022-09-10T09:11:12.648Z,54.41
2022-09-10T09:14:02.030Z,54.69
2022-09-10T09:16:28.133Z,54.25
2022-09-10T09:18:41.817Z,54.33
2022-09-10T09:20:49.173Z,55.20
2022-09-10T09:23:07.798Z,54.88
2022-09-10T09:25:27.945Z,54.87
2022-09-10T09:27:32.333Z,54.43
2022-09-10T09:29:52.742Z,54.54
2022-09-10T09:31:58.787Z,55.12
2022-09-10T09:34:13.183Z,54.18
2022-09-10T09:36:18.826Z,54.55
2022-09-10T09:38:25.649Z,54.42
2022-09-10T09:40:46.196Z,54.02
2022-09-10T09:42:58.329Z,54.25
2022-09-10T09:45:03.933Z,53.81
2022-09-10T09:47:05.530Z,53.20
2022-09-10T09:49:11.875Z,52.63
2022-09-10T09:51:16.090Z,52.13
2022-09-10T09:53:21.944Z,50.94
2022-09-10T09:55:23.691Z,50.20
2022-09-10T09:57:25.318Z,49.82
2022-09-10T09:59:31.966Z,49.67
2022-09-10T10:01:34.534Z,49.81
2022-09-10T10:03:51.649Z,49.21
2022-09-10T10:06:08.494Z,48.21
2022-09-10T10:08:26.246Z,47.94
2022-09-10T10:10:28.304Z,48.17
2022-09-10T10:12:33.855Z,47.52
2022-09-10T10:14:41.612Z,46.90
2022-09-10T10:16:43.330Z,46.85
2022-09-10T10:18:46.111Z,46.09
2022-09-10T10:20:48.799Z,45.88
2022-09-10T10:22:50.403Z,46.37
2022-09-10T10:24:54.075Z,46.01
2022-09-10T10:26:55.915Z,46.24
2022-09-10T10:28:59.841Z,46.04
2022-09-10T10:31:01.646Z,45.95
2022-09-10T10:33:03.842Z,45.36
2022-09-10T10:35:11.658Z,45.51
2022-09-10T10:37:43.803Z,45.21
2022-09-10T10:40:10.108Z,45.36
2022-09-10T10:42:35.601Z,44.91
2022-09-10T10:45:01.930Z,45.13
2022-09-10T10:47:25.402Z,44.75
2022-09-10T10:49:53.317Z,44.90
2022-09-10T10:52:04.387Z,45.04
2022-09-10T10:54:24.537Z,44.45
2022-09-10T10:56:44.824Z,43.89
2022-09-10T10:59:09.404Z,44.31
2022-09-10T11:01:23.137Z,44.80
2022-09-10T11:03:59.545Z,45.35
2022-09-10T11:06:05.212Z,45.16
2022-09-10T11:08:15.139Z,45.31
2022-09-10T11:10:54.661Z,45.56
2022-09-10T11:13:18.929Z,45.49
2022-09-10T11:15:38.843Z,51.14
2022-09-10T11:17:48.757Z,53.42
2022-09-10T11:20:27.391Z,56.41
2022-09-10T11:22:33.636Z,58.02
2022-09-10T11:24:43.217Z,63.99
2022-09-10T11:26:48.869Z,66.00
2022-09-10T11:29:07.808Z,68.69
2022-09-10T11:31:15.866Z,70.31
2022-09-10T11:33:23.453Z,69.18
2022-09-10T11:35:35.325Z,72.39
2022-09-10T11:38:01.420Z,72.74
2022-09-10T11:40:06.938Z,73.76
2022-09-10T11:42:36.195Z,74.46
2022-09-10T11:44:45.961Z,74.53
2022-09-10T11:46:57.271Z,70.54
2022-09-10T11:49:16.158Z,68.06
2022-09-10T11:51:30.712Z,69.29
2022-09-10T11:53:32.452Z,70.37
2022-09-10T11:56:23.302Z,69.87
2022-09-10T11:58:53.063Z,71.17
2022-09-10T12:01:05.018Z,70.19
2022-09-10T12:03:20.289Z,72.08
2022-09-10T12:05:46.561Z,73.62
2022-09-10T12:07:53.906Z,74.03
2022-09-10T12:10:20.379Z,72.96
2022-09-10T12:12:40.987Z,73.67
2022-09-10T12:14:42.832Z,72.50
2022-09-10T12:16:49.122Z,74.00
2022-09-10T12:18:53.258Z,75.46
2022-09-10T12:20:59.464Z,75.04
2022-09-10T12:23:01.269Z,75.09
2022-09-10T12:25:06.348Z,75.20
2022-09-10T12:27:16.093Z,74.84
2022-09-10T12:29:34.495Z,73.47
2022-09-10T12:32:16.185Z,73.32
2022-09-10T12:34:19.603Z,73.31
2022-09-10T12:36:27.300Z,74.03
2022-09-10T12:38:56.334Z,73.54
2022-09-10T12:40:57.913Z,73.99
2022-09-10T12:43:04.237Z,74.29
2022-09-10T12:45:08.762Z,73.48
2022-09-10T12:47:16.495Z,72.56
2022-09-10T12:49:18.203Z,71.98
2022-09-10T12:51:19.985Z,72.01
2022-09-10T12:53:42.965Z,72.12
2022-09-10T12:56:02.233Z,72.03
2022-09-10T12:58:40.017Z,72.16
2022-09-10T13:00:58.184Z,71.55
2022-09-10T13:03:15.270Z,71.42
2022-09-10T13:05:31.756Z,71.76
2022-09-10T13:07:40.282Z,72.36
2022-09-10T13:09:42.024Z,71.43
2022-09-10T13:11:47.411Z,70.86
2022-09-10T13:13:48.983Z,69.68
2022-09-10T13:15:52.290Z,69.75
2022-09-10T13:17:54.573Z,70.20
2022-09-10T13:20:14.864Z,70.32
2022-09-10T13:22:36.224Z,70.20
2022-09-10T13:24:39.374Z,70.55
2022-09-10T13:26:52.527Z,69.34
2022-09-10T13:28:54.719Z,68.81
2022-09-10T13:31:13.126Z,68.90
2022-09-10T13:33:21.488Z,67.52
2022-09-10T13:35:47.312Z,66.50
2022-09-10T13:37:48.990Z,66.52
2022-09-10T13:40:08.103Z,66.81
2022-09-10T13:42:24.941Z,66.01
2022-09-10T13:45:01.048Z,66.70
2022-09-10T13:47:09.330Z,67.62
2022-09-10T13:49:19.385Z,68.52
2022-09-10T13:51:46.363Z,69.42
2022-09-10T13:53:49.160Z,70.85
2022-09-10T13:55:59.073Z,70.98
2022-09-10T13:58:06.493Z,71.44
2022-09-10T14:00:17.909Z,71.42
2022-09-10T14:02:21.307Z,72.17
2022-09-10T14:04:24.063Z,71.81
2022-09-10T14:06:25.814Z,71.91
2022-09-10T14:08:27.445Z,72.05
2022-09-10T14:10:29.510Z,71.95
2022-09-10T14:12:34.573Z,72.12
2022-09-10T14:14:39.765Z,72.01
2022-09-10T14:16:48.167Z,71.29
2022-09-10T14:18:53.519Z,71.00
2022-09-10T14:20:55.198Z,69.91
2022-09-10T14:23:02.675Z,68.52
2022-09-10T14:25:05.350Z,68.13
2022-09-10T14:27:13.581Z,68.54
2022-09-10T14:29:25.589Z,65.06
2022-09-10T14:31:33.646Z,65.31
2022-09-10T14:33:36.357Z,66.10
2022-09-10T14:35:43.277Z,66.37
2022-09-10T14:37:44.892Z,66.21
2022-09-10T14:39:47.457Z,66.84
2022-09-10T14:41:49.803Z,67.68
2022-09-10T14:44:23.216Z,68.60
2022-09-10T14:46:54.503Z,69.09
2022-09-10T14:48:58.802Z,68.33
2022-09-10T14:51:22.783Z,67.53
2022-09-10T14:53:24.583Z,67.01
2022-09-10T14:55:27.338Z,65.57
2022-09-10T14:57:28.967Z,65.82
2022-09-10T14:59:41.657Z,65.82
2022-09-10T15:01:45.457Z,64.98
2022-09-10T15:03:47.129Z,65.72
2022-09-10T15:05:48.777Z,67.52
2022-09-10T15:07:50.453Z,69.38
2022-09-10T15:09:53.551Z,69.82
2022-09-10T15:12:05.960Z,70.24
2022-09-10T15:14:10.620Z,70.39
2022-09-10T15:16:12.356Z,69.68
2022-09-10T15:18:15.137Z,69.10
2022-09-10T15:20:17.000Z,68.94
2022-09-10T15:22:28.284Z,69.66
2022-09-10T15:24:29.905Z,70.86
2022-09-10T15:26:31.481Z,71.19
2022-09-10T15:28:33.611Z,70.87
2022-09-10T15:30:36.863Z,70.43
2022-09-10T15:32:38.503Z,72.50
2022-09-10T15:34:40.831Z,71.71
2022-09-10T15:36:42.511Z,72.55
2022-09-10T15:38:44.093Z,71.85
2022-09-10T15:40:48.830Z,72.03
2022-09-10T15:42:52.358Z,71.50
2022-09-10T15:44:53.816Z,71.38
2022-09-10T15:46:55.780Z,71.59
2022-09-10T15:48:59.452Z,71.20
2022-09-10T15:51:05.653Z,70.89
2022-09-10T15:53:11.736Z,70.70
2022-09-10T15:55:14.067Z,69.46
2022-09-10T15:57:15.729Z,69.62
2022-09-10T15:59:17.510Z,69.20
2022-09-10T16:01:19.416Z,68.69
2022-09-10T16:03:21.525Z,68.82
2022-09-10T16:05:23.157Z,69.33
2022-09-10T16:07:24.885Z,69.60
2022-09-10T16:09:26.524Z,69.02
2022-09-10T16:11:31.176Z,68.17
2022-09-10T16:13:32.981Z,67.47
2022-09-10T16:15:37.155Z,65.20
2022-09-10T16:17:38.864Z,65.58
2022-09-10T16:19:40.562Z,65.05
2022-09-10T16:21:43.459Z,64.61
2022-09-10T16:23:46.852Z,64.79
2022-09-10T16:25:53.161Z,64.97
2022-09-10T16:27:54.768Z,64.68
2022-09-10T16:29:56.395Z,63.88
2022-09-10T16:31:58.187Z,63.47
2022-09-10T16:34:05.105Z,63.46
2022-09-10T16:36:07.267Z,62.97
2022-09-10T16:38:09.150Z,63.51
2022-09-10T16:40:11.649Z,63.54
2022-09-10T16:42:13.651Z,63.29
2022-09-10T16:44:16.894Z,63.26
2022-09-10T16:46:18.718Z,62.29
2022-09-10T16:48:20.355Z,62.33
2022-09-10T16:50:23.131Z,62.31
2022-09-10T16:52:24.728Z,62.92
2022-09-10T16:54:26.701Z,61.67
2022-09-10T16:56:39.906Z,61.63
2022-09-10T16:58:45.237Z,62.09
2022-09-10T17:00:49.754Z,62.06
2022-09-10T17:02:53.034Z,62.54
2022-09-10T17:04:55.462Z,63.24
2022-09-10T17:06:57.867Z,62.96
2022-09-10T17:09:01.398Z,63.29
2022-09-10T17:11:02.888Z,63.81
2022-09-10T17:13:04.490Z,63.59
2022-09-10T17:15:07.210Z,63.86
2022-09-10T17:17:09.885Z,64.12
2022-09-10T17:19:17.576Z,64.04
2022-09-10T17:21:19.379Z,64.50
2022-09-10T17:23:20.991Z,64.35
2022-09-10T17:25:22.586Z,64.24
2022-09-10T17:27:25.680Z,64.22
2022-09-10T17:29:27.453Z,63.31
2022-09-10T17:31:29.945Z,62.28
2022-09-10T17:33:31.994Z,62.49
2022-09-10T17:35:33.633Z,62.72
2022-09-10T17:37:35.907Z,62.41
2022-09-10T17:39:37.599Z,62.46
2022-09-10T17:41:39.711Z,62.09
2022-09-10T17:43:42.934Z,61.30
2022-09-10T17:45:44.686Z,61.29
2022-09-10T17:47:46.360Z,60.50
2022-09-10T17:49:48.114Z,60.38
2022-09-10T17:51:49.790Z,59.69
2022-09-10T17:53:52.957Z,59.31
2022-09-10T17:55:54.845Z,59.12
2022-09-10T17:57:56.497Z,58.73
2022-09-10T17:59:58.140Z,58.84
2022-09-10T18:01:59.748Z,58.67
2022-09-10T18:04:01.733Z,58.39
2022-09-10T18:06:08.826Z,58.10
2022-09-10T18:08:11.339Z,58.72
2022-09-10T18:10:13.232Z,58.72
2022-09-10T18:12:15.057Z,58.37
2022-09-10T18:14:18.643Z,58.77
2022-09-10T18:16:26.229Z,59.09
2022-09-10T18:18:28.100Z,59.03
2022-09-10T18:20:30.070Z,58.46
2022-09-10T18:22:33.298Z,59.03
2022-09-10T18:24:34.859Z,58.25
2022-09-10T18:26:39.460Z,58.47
2022-09-10T18:28:42.720Z,58.77
2022-09-10T18:30:44.276Z,58.69
2022-09-10T18:32:47.707Z,58.12
2022-09-10T18:34:49.482Z,58.85
2022-09-10T18:36:54.463Z,59.13
2022-09-10T18:38:56.280Z,59.75
2022-09-10T18:40:57.940Z,59.77
2022-09-10T18:42:59.601Z,59.96
2022-09-10T18:45:01.188Z,60.20
2022-09-10T18:47:14.266Z,60.85
2022-09-10T18:49:25.159Z,61.02
2022-09-10T18:51:29.706Z,61.26
2022-09-10T18:53:32.308Z,60.69
2022-09-10T18:55:34.174Z,61.61
2022-09-10T18:57:36.577Z,60.49
2022-09-10T18:59:38.392Z,60.90
2022-09-10T19:01:43.990Z,60.15
2022-09-10T19:03:47.836Z,60.29
2022-09-10T19:05:49.701Z,60.00
2022-09-10T19:07:51.798Z,59.91
2022-09-10T19:09:53.973Z,60.52
2022-09-10T19:11:57.127Z,60.43
2022-09-10T19:14:00.043Z,60.98
2022-09-10T19:16:02.689Z,60.94
2022-09-10T19:18:06.413Z,60.83
2022-09-10T19:20:09.089Z,61.28
2022-09-10T19:22:13.471Z,61.65
2022-09-10T19:24:16.274Z,62.32
2022-09-10T19:26:19.216Z,62.60
2022-09-10T19:28:21.093Z,62.45
2022-09-10T19:30:22.718Z,62.92
2022-09-10T19:32:24.314Z,62.86
2022-09-10T19:34:26.928Z,62.88
2022-09-10T19:36:31.713Z,63.20
2022-09-10T19:38:37.842Z,63.14
2022-09-10T19:40:39.717Z,63.21
2022-09-10T19:42:41.449Z,63.02
2022-09-10T19:44:43.682Z,62.90
2022-09-10T19:46:45.883Z,62.78
2022-09-10T19:48:48.069Z,62.31
2022-09-10T19:50:50.028Z,62.31
2022-09-10T19:52:51.880Z,62.37
2022-09-10T19:54:53.676Z,62.16
2022-09-10T19:56:56.383Z,62.17
2022-09-10T19:58:58.478Z,62.21
2022-09-10T20:01:00.126Z,62.03
2022-09-10T20:03:01.996Z,61.79
2022-09-10T20:05:04.629Z,62.11
2022-09-10T20:07:06.825Z,62.00
2022-09-10T20:09:10.132Z,62.02
2022-09-10T20:11:19.850Z,62.53
2022-09-10T20:13:21.494Z,62.38
2022-09-10T20:15:23.596Z,62.45
2022-09-10T20:17:25.198Z,62.52
2022-09-10T20:19:27.070Z,62.46
2022-09-10T20:21:31.662Z,62.13
2022-09-10T20:23:36.257Z,62.99
2022-09-10T20:25:38.563Z,63.90
2022-09-10T20:27:40.105Z,64.09
2022-09-10T20:29:43.330Z,63.76
2022-09-10T20:31:47.049Z,63.65
2022-09-10T20:33:49.391Z,64.04
2022-09-10T20:35:51.166Z,64.42
2022-09-10T20:37:52.721Z,63.91
2022-09-10T20:39:56.780Z,64.31
2022-09-10T20:41:59.056Z,64.25
2022-09-10T20:44:01.649Z,64.38
2022-09-10T20:46:03.464Z,64.50
2022-09-10T20:48:05.135Z,64.56
2022-09-10T20:50:06.943Z,64.64
2022-09-10T20:52:08.524Z,64.78
2022-09-10T20:54:15.997Z,64.64
2022-09-10T20:56:19.333Z,64.62
2022-09-10T20:58:20.908Z,64.55
2022-09-10T21:00:22.967Z,64.34
2022-09-10T21:02:25.304Z,64.04
2022-09-10T21:04:27.072Z,63.95
2022-09-10T21:06:31.343Z,63.65
2022-09-10T21:08:33.132Z,63.56
2022-09-10T21:10:36.699Z,63.79
2022-09-10T21:12:38.310Z,63.34
2022-09-10T21:14:39.857Z,62.82
2022-09-10T21:16:43.237Z,63.00
2022-09-10T21:18:54.172Z,62.78
2022-09-10T21:21:16.187Z,62.69
2022-09-10T21:23:20.202Z,62.41
2022-09-10T21:25:22.152Z,61.96
2022-09-10T21:27:24.207Z,62.09
2022-09-10T21:29:25.813Z,61.81
2022-09-10T21:31:28.316Z,61.63
2022-09-10T21:33:30.014Z,61.74
2022-09-10T21:35:31.828Z,61.76
2022-09-10T21:37:33.425Z,61.31
2022-09-10T21:39:35.163Z,61.26
2022-09-10T21:41:42.649Z,60.88
2022-09-10T21:43:45.948Z,60.54
2022-09-10T21:45:48.459Z,60.48
2022-09-10T21:47:50.038Z,60.53
2022-09-10T21:49:51.936Z,60.45
2022-09-10T21:51:53.648Z,60.63
2022-09-10T21:53:56.456Z,60.35
2022-09-10T21:55:59.043Z,59.62
2022-09-10T21:58:00.751Z,60.05
2022-09-10T22:00:02.630Z,60.16
2022-09-10T22:02:04.388Z,60.05
2022-09-10T22:04:06.269Z,59.92
2022-09-10T22:06:10.067Z,60.08
2022-09-10T22:08:11.693Z,59.97
2022-09-10T22:10:13.387Z,59.99
2022-09-10T22:12:14.967Z,60.15
2022-09-10T22:14:18.591Z,60.20
2022-09-10T22:16:21.011Z,60.22
2022-09-10T22:18:22.629Z,60.01
2022-09-10T22:20:24.217Z,60.31
2022-09-10T22:22:26.099Z,60.02
2022-09-10T22:24:27.755Z,59.88
2022-09-10T22:26:29.389Z,59.42
2022-09-10T22:28:34.872Z,59.40
2022-09-10T22:30:37.056Z,59.38
2022-09-10T22:32:39.657Z,59.35
2022-09-10T22:34:41.415Z,59.79
2022-09-10T22:36:44.326Z,59.63
2022-09-10T22:38:53.637Z,60.16
2022-09-10T22:40:57.032Z,60.08
2022-09-10T22:42:58.881Z,60.00
2022-09-10T22:45:01.416Z,60.08
2022-09-10T22:47:03.137Z,60.33
2022-09-10T22:49:05.811Z,60.37
2022-09-10T22:51:12.623Z,60.40
2022-09-10T22:53:14.640Z,60.55
2022-09-10T22:55:16.237Z,60.67
2022-09-10T22:57:18.497Z,60.60
2022-09-10T22:59:20.113Z,60.71
2022-09-10T23:01:24.920Z,60.73
2022-09-10T23:03:27.165Z,60.88
2022-09-10T23:05:28.906Z,60.91
2022-09-10T23:07:30.446Z,60.87
2022-09-10T23:09:32.157Z,61.06
2022-09-10T23:11:34.536Z,61.33
2022-09-10T23:13:36.253Z,61.67
2022-09-10T23:15:37.949Z,62.11
2022-09-10T23:17:39.632Z,62.16
2022-09-10T23:19:41.223Z,62.13
2022-09-10T23:21:45.727Z,62.19
2022-09-10T23:23:48.631Z,62.47
2022-09-10T23:25:50.465Z,62.29
2022-09-10T23:27:52.205Z,62.25
2022-09-10T23:29:53.811Z,62.24
2022-09-10T23:31:55.368Z,62.30
2022-09-10T23:33:59.384Z,62.34
2022-09-10T23:36:03.237Z,62.17
2022-09-10T23:38:04.817Z,62.19
2022-09-10T23:40:07.549Z,62.20
2022-09-10T23:42:09.278Z,62.05
2022-09-10T23:44:10.889Z,61.78
2022-09-10T23:46:12.668Z,61.70
2022-09-10T23:48:14.299Z,62.11
2022-09-10T23:50:16.493Z,62.45
2022-09-10T23:52:18.379Z,62.28
2022-09-10T23:54:20.152Z,62.32
2022-09-10T23:56:23.558Z,62.24
2022-09-10T23:58:25.344Z,62.03
